Página principal
METAR-TAF:

METAR-TAF

Aeroportos :

Cairuão, Tunísia

latitude: 35-40N, longitude: 010-06E, altura: 60 m

Observação actual do tempo

O boletim foi feito há 51 minutos, às 12:00 UTC
Vento 2 kt de sul
Temperatura 38°C
Humidade 23%
Pressão 1014 hPa
Visibilidade 10 km ou mais
sem nuvens abaixo de 1500 metros e sem cumulonimbus

METAR: DTTK 201200Z 17002KT CAVOK 38/13 Q1014

Hora: 13:51 (12:51 UTC)


TAF: em falta

Observações e previsões do tempo de mais de 4000 aeroportos (mensagens METAR e TAF).

As estações disponíveis são os pontos amarelos e vermelhos sobre o mapa.

Mova o rato sobre o mapa para ver o nome da estação.

Depois clique no ponto para visualizar as observações e previsões meteorológicas.

Para alterar o mapa : clique nos botões verdes com uma cruz preta para aumentar o zoom; no botão verde com uma pitada de zoom; ou nas setas verdes para mapas adjacentes.


METAR-TAF: